Flight Track Log - Related Links

Times and Time Zones

All times are in EDT time to prevent confusion due to time zone crossing. See the EJA839 flight status page for this flight to view local times or setup timezone preferences in your user account.

Time Position Orientation Groundspeed Altitude Reporting Facility
EDT Latitude Longitude Course Direction KTS MPH feet Rate Location/Type
Mon 01:01:31 PM 43.6833 -79.5667 55° Northeast 200 230 2,400  Level Toronto Center
Mon 01:02:31 PM 43.7167 -79.5000 55° Northeast 240 276 5,500 3,100 Climbing Toronto Center
Mon 01:03:31 PM 43.6833 -79.3833 112° Southeast 260 299 8,600 3,250 Climbing Toronto Center
Mon 01:04:31 PM 43.6333 -79.3333 144° Southeast 280 322 12,000 3,400 Climbing Toronto Center
Mon 01:05:31 PM 43.5667 -79.3833 209° Southwest 290 334 15,400 3,050 Climbing Toronto Center
Mon 01:06:31 PM 43.5167 -79.4667 230° Southwest 300 345 18,100 2,450 Climbing Toronto Center
Mon 01:07:31 PM 43.4500 -79.5667 227° Southwest 310 357 20,300 2,150 Climbing Toronto Center
Mon 01:08:31 PM 43.4000 -79.6500 230° Southwest 330 380 22,400 2,050 Climbing Toronto Center
Mon 01:09:31 PM 43.3333 -79.7667 232° Southwest 350 403 24,400 1,750 Climbing Toronto Center
Mon 01:10:31 PM 43.2833 -79.8667 236° Southwest 360 414 25,900 800 Climbing Toronto Center
Mon 01:11:31 PM 43.2167 -79.9833 232° Southwest 380 437 26,000 50 Climbing Toronto Center
Mon 01:12:31 PM 43.1500 -80.1167 236° Southwest 400 460 26,000  Level Toronto Center
Mon 01:13:31 PM 43.0667 -80.2333 226° Southwest 400 460 26,000  Level Toronto Center
Mon 01:14:31 PM 43.0000 -80.3333 228° Southwest 400 460 26,000  Level Toronto Center
Mon 01:15:31 PM 42.9333 -80.4833 239° Southwest 400 460 26,000  Level Toronto Center
Mon 01:16:49 PM 42.8542 -80.6342 234° Southwest 401 461 26,000  Level Cleveland Center
Mon 01:17:49 PM 42.7853 -80.7558 232° Southwest 401 461 26,000  Level Cleveland Center
Mon 01:18:49 PM 42.7142 -80.8714 230° Southwest 406 467 26,000  Level Cleveland Center
Mon 01:19:49 PM 42.6222 -80.9500 212° Southwest 395 455 26,000  Level Cleveland Center
Mon 01:20:49 PM 42.5239 -81.0197 208° Southwest 401 461 26,000  Level Cleveland Center
Mon 01:21:49 PM 42.4236 -81.0922 208° Southwest 407 468 26,000  Level Cleveland Center
Mon 01:22:49 PM 42.3339 -81.1506 206° Southwest 407 468 26,000  Level Cleveland Center
Mon 01:23:49 PM 42.2311 -81.2197 206° Southwest 412 474 26,000  Level Cleveland Center
Mon 01:24:49 PM 42.1328 -81.2886 207° Southwest 407 468 26,000  Level Cleveland Center
Mon 01:25:49 PM 42.0344 -81.3519 206° Southwest 407 468 26,000  Level Cleveland Center
Mon 01:26:49 PM 41.9361 -81.4233 208° Southwest 407 468 26,000  Level Cleveland Center
Mon 01:27:49 PM 41.8375 -81.4889 206° Southwest 407 468 26,000  Level Cleveland Center
Mon 01:28:49 PM 41.7369 -81.5569 207° Southwest 407 468 26,000  Level Cleveland Center
Mon 01:29:49 PM 41.6258 -81.6275 205° Southwest 407 468 26,000  Level Cleveland Center
Mon 01:30:49 PM 41.5250 -81.6953 207° Southwest 407 468 26,000  Level Cleveland Center
Mon 01:31:49 PM 41.4264 -81.7628 207° Southwest 407 468 26,000  Level Cleveland Center
Mon 01:32:49 PM 41.3406 -81.8167 205° Southwest 402 463 26,000 -150 Level Cleveland Center
Mon 01:33:49 PM 41.2397 -81.8836 207° Southwest 402 463 25,700 -500 Descending Cleveland Center
Mon 01:34:49 PM 41.1408 -81.9478 206° Southwest 402 463 25,000 -650 Descending Cleveland Center
Mon 01:35:49 PM 41.0317 -82.0228 207° Southwest 408 470 24,400 -1,050 Descending Cleveland Center
Mon 01:36:49 PM 40.9350 -82.0839 206° Southwest 394 453 22,900 -1,650 Descending Cleveland Center
Mon 01:37:49 PM 40.8422 -82.1447 206° Southwest 386 444 21,100 -2,217 Descending Cleveland Center
Mon 01:39:53 PM 40.6694 -82.2558 206° Southwest 345 397 16,100 -2,806 Descending Indianapolis Center
Mon 01:40:55 PM 40.5889 -82.3089 207° Southwest 324 373 12,400 -2,970 Descending Indianapolis Center
Mon 01:41:34 PM 40.5286 -82.3456 205° Southwest 310 357 11,100 -1,355 Descending Indianapolis Center
Mon 01:41:57 PM 40.5119 -82.3597 213° Southwest 310 357 11,000 -98 Descending Indianapolis Center
Mon 01:42:35 PM 40.4575 -82.4119 216° Southwest 322 371 11,000 -393 Level Indianapolis Center
Mon 01:42:58 PM 40.4261 -82.4392 213° Southwest 319 367 10,600 -885 Descending Indianapolis Center
Mon 01:43:36 PM 40.3800 -82.4828 216° Southwest 313 360 10,100 -581 Descending Indianapolis Center
Mon 01:44:00 PM 40.3556 -82.5056 215° Southwest 312 359 10,000  Descending Indianapolis Center
Mon 01:44:37 PM 40.3108 -82.5492 217° Southwest 310 357 10,100  Climbing Indianapolis Center
Mon 01:45:02 PM 40.2842 -82.5733 215° Southwest 314 361 10,000 -689 Descending Indianapolis Center
Mon 01:45:38 PM 40.2575 -82.6308 239° Southwest 292 336 9,400 -1,377 Descending Indianapolis Center
Mon 01:46:03 PM 40.2475 -82.6661 250° West 280 322 8,600 -1,869 Descending Indianapolis Center
Mon 01:46:39 PM 40.2306 -82.7206 248° West 264 304 7,500 -1,935 Descending Indianapolis Center
Mon 01:47:05 PM 40.2136 -82.7611 241° Southwest 269 310 6,600 -1,377 Descending Indianapolis Center
Mon 01:47:40 PM 40.1958 -82.8039 241° Southwest 252 290 6,100 -581 Descending Indianapolis Center
Mon 01:48:07 PM 40.1783 -82.8408 238° Southwest 256 295 6,000  Descending Indianapolis Center
Mon 01:48:41 PM 40.1567 -82.8897 240° Southwest 253 291 6,100  Climbing Indianapolis Center
Mon 01:49:09 PM 40.1422 -82.9222 240° Southwest 257 296 6,000 -90 Descending Indianapolis Center
Mon 01:49:48 PM 40.1194 -82.9753 241° Southwest 251 289 6,000 -492 Level Indianapolis Center
Mon 01:50:10 PM 40.1081 -83.0022 241° Southwest 253 291 5,500 -1,357 Descending Indianapolis Center
Mon 01:51:12 PM 40.0792 -83.0706 241° Southwest 229 264 4,100 -800 Descending Indianapolis Center
Mon 01:51:55 PM 40.0553 -83.1178 237° Southwest 201 231 4,100 -97 Level Indianapolis Center
Mon 01:52:14 PM 40.0431 -83.1194 186° South 213 245 4,000 -295 Descending Indianapolis Center
Mon 01:52:56 PM 40.0133 -83.0883 141° Southeast 185 213 3,800 -689 Descending Indianapolis Center
Mon 01:53:15 PM 40.0092 -83.0717 108° East 197 227 3,300 -1,469 Descending Indianapolis Center
Mon 01:53:45 PM 40.0092 -83.0281 90° East 214 246 2,600 -1,065 Descending Indianapolis Center
Mon 01:54:17 PM 40.0089 -82.9994 91° East 198 228 2,200 -787 Descending Indianapolis Center
Mon 01:54:46 PM 40.0069 -82.9678 95° East 164 189 1,800 -787 Descending Indianapolis Center
Mon 01:55:18 PM 40.0050 -82.9450 96° East 169 194 1,400 -590 Descending Indianapolis Center
Mon 01:55:47 PM 40.0036 -82.9239 95° East 109 125 1,200 -290 Descending Indianapolis Center
Mon 01:56:20 PM 40.0008 -82.9033 100° East 144 166 1,100 -182 Descending Indianapolis Center

Login

Don't have an account? Register now (free) for customized features, flight alerts, and more!